Time;durP1;ratioP1;P1;durP2;ratioP2;P2;SDS_P1;SDS_P2;PMS_P1;PMS_P2;Temp;Humidity;BMP_temperature;BMP_pressure;BME280_temperature;BME280_humidity;BME280_pressure;Samples;Min_cycle;Max_cycle;Signal;HPM_P1;HPM_P2
2023/05/28 00:01:22;;;;;;;0.50;0.40;;;13.10;99.90;;;;;;5035172;28;20537;-81
2023/05/28 00:03:49;;;;;;;0.50;0.40;;;13.00;99.90;;;;;;5034888;28;20466;-82
2023/05/28 00:06:16;;;;;;;0.50;0.40;;;13.10;99.90;;;;;;5039490;28;20457;-79
2023/05/28 00:08:45;;;;;;;0.50;0.40;;;13.10;99.90;;;;;;5044298;28;20458;-78
2023/05/28 00:11:12;;;;;;;0.50;0.40;;;13.10;99.90;;;;;;5045156;28;20450;-78
2023/05/28 00:13:39;;;;;;;0.50;0.40;;;13.00;99.90;;;;;;5044626;28;20462;-78
2023/05/28 00:16:06;;;;;;;0.60;0.40;;;13.00;99.90;;;;;;5038560;28;20508;-82
2023/05/28 00:18:32;;;;;;;0.50;0.40;;;12.90;99.90;;;;;;5035008;28;20442;-82
2023/05/28 00:21:00;;;;;;;0.50;0.40;;;12.90;99.90;;;;;;5034692;28;20445;-82
2023/05/28 00:23:27;;;;;;;0.50;0.40;;;12.90;99.90;;;;;;5033838;28;20466;-81
2023/05/28 00:25:55;;;;;;;0.50;0.40;;;12.80;99.90;;;;;;5034545;28;20202;-81
2023/05/28 00:28:22;;;;;;;0.50;0.40;;;12.80;99.90;;;;;;5026237;28;20529;-80
2023/05/28 00:30:49;;;;;;;0.50;0.40;;;12.80;99.90;;;;;;5034886;28;20805;-82
2023/05/28 00:33:16;;;;;;;1.77;1.67;;;12.70;99.90;;;;;;5034384;28;20553;-80
2023/05/28 00:35:43;;;;;;;0.50;0.40;;;12.70;99.90;;;;;;5034204;28;20476;-83
2023/05/28 00:38:09;;;;;;;0.50;0.40;;;12.60;99.90;;;;;;5034031;28;20442;-82
2023/05/28 00:40:36;;;;;;;1.50;1.50;;;12.60;99.90;;;;;;5034433;28;20210;-81
2023/05/28 00:43:04;;;;;;;0.50;0.40;;;12.50;99.90;;;;;;5034086;28;20462;-81
2023/05/28 00:45:31;;;;;;;0.50;0.40;;;12.60;99.90;;;;;;5035082;28;20466;-82
2023/05/28 00:47:58;;;;;;;0.50;0.40;;;12.60;99.90;;;;;;5034432;28;20195;-81
2023/05/28 00:50:28;;;;;;;0.50;0.40;;;12.50;99.90;;;;;;5034059;28;20609;-79
2023/05/28 00:52:55;;;;;;;0.50;0.40;;;12.50;99.90;;;;;;5034252;28;20462;-82
2023/05/28 00:55:22;;;;;;;0.50;0.40;;;12.50;99.90;;;;;;5034460;28;20251;-81
2023/05/28 00:57:54;;;;;;;0.70;0.70;;;12.50;99.90;;;;;;5034599;28;20195;-81
2023/05/28 01:00:23;;;;;;;0.50;0.40;;;12.50;99.90;;;;;;5033923;28;20230;-79
2023/05/28 01:02:50;;;;;;;0.50;0.40;;;12.50;99.90;;;;;;5034067;28;20369;-81
2023/05/28 01:05:17;;;;;;;1.60;1.60;;;12.50;99.90;;;;;;5034002;28;20877;-80
2023/05/28 01:07:44;;;;;;;0.50;0.40;;;12.50;99.90;;;;;;5034909;28;20441;-81
2023/05/28 01:10:11;;;;;;;0.60;0.40;;;12.50;99.90;;;;;;5033340;28;20901;-81
2023/05/28 01:12:40;;;;;;;0.50;0.40;;;12.50;99.90;;;;;;5034581;28;20619;-81
2023/05/28 01:15:08;;;;;;;0.50;0.40;;;12.50;99.90;;;;;;5034099;28;20442;-81
2023/05/28 01:17:38;;;;;;;0.50;0.50;;;12.40;99.90;;;;;;5034336;28;20469;-80
2023/05/28 01:20:11;;;;;;;0.50;0.40;;;12.30;99.90;;;;;;5034087;28;20442;-81
2023/05/28 01:22:39;;;;;;;0.50;0.40;;;12.20;99.90;;;;;;5038109;28;20494;-81
2023/05/28 01:25:09;;;;;;;0.50;0.40;;;12.20;99.90;;;;;;5037984;28;20783;-81
2023/05/28 01:27:39;;;;;;;0.50;0.40;;;12.20;99.90;;;;;;5037716;28;20942;-80
2023/05/28 01:30:09;;;;;;;0.50;0.50;;;12.10;99.90;;;;;;5037745;28;20476;-81
2023/05/28 01:32:37;;;;;;;0.90;0.90;;;12.10;99.90;;;;;;5038109;28;20573;-81
2023/05/28 01:35:05;;;;;;;0.60;0.60;;;12.20;99.90;;;;;;5037120;28;20465;-82
2023/05/28 01:37:33;;;;;;;0.50;0.40;;;12.20;99.90;;;;;;5037399;28;20448;-81
2023/05/28 01:40:02;;;;;;;26.00;10.47;;;12.30;99.90;;;;;;5037622;28;20437;-81
2023/05/28 01:42:32;;;;;;;0.50;0.40;;;12.30;99.90;;;;;;5029765;28;20546;-79
2023/05/28 01:45:00;;;;;;;0.50;0.40;;;12.20;99.90;;;;;;5038030;28;20669;-81
2023/05/28 01:47:29;;;;;;;0.50;0.40;;;12.20;99.90;;;;;;5029443;28;20438;-78
2023/05/28 01:49:56;;;;;;;0.50;0.40;;;12.10;99.90;;;;;;5036939;28;20477;-80
2023/05/28 01:52:22;;;;;;;0.50;0.40;;;12.00;99.90;;;;;;5037367;28;20541;-81
2023/05/28 01:54:49;;;;;;;0.50;0.40;;;11.90;99.90;;;;;;5037576;28;20463;-82
2023/05/28 01:57:16;;;;;;;0.50;0.40;;;11.90;99.90;;;;;;5037289;28;20829;-79
2023/05/28 01:59:44;;;;;;;1.53;1.43;;;11.90;99.90;;;;;;5037628;28;20528;-81
2023/05/28 02:02:11;;;;;;;0.60;0.50;;;11.90;99.90;;;;;;5036986;28;20437;-81
2023/05/28 02:04:38;;;;;;;0.50;0.40;;;11.90;99.90;;;;;;5037125;28;20627;-80
2023/05/28 02:07:05;;;;;;;0.50;0.40;;;11.90;99.90;;;;;;5037225;28;20787;-79
2023/05/28 02:09:32;;;;;;;0.50;0.40;;;11.90;99.90;;;;;;5036787;28;20473;-81
2023/05/28 02:12:02;;;;;;;0.50;0.40;;;11.90;99.90;;;;;;5038007;28;20203;-81
2023/05/28 02:14:29;;;;;;;0.50;0.40;;;11.80;99.90;;;;;;5036593;28;20473;-80
2023/05/28 02:16:58;;;;;;;0.50;0.40;;;11.70;99.90;;;;;;5036787;28;21587;-80
2023/05/28 02:19:25;;;;;;;0.50;0.40;;;11.60;99.90;;;;;;5037767;28;20195;-81
2023/05/28 02:21:53;;;;;;;0.50;0.40;;;11.70;99.90;;;;;;5027193;28;20211;-81
2023/05/28 02:24:19;;;;;;;0.50;0.40;;;11.60;99.90;;;;;;5035604;28;20529;-81
2023/05/28 02:26:46;;;;;;;0.50;0.40;;;11.50;99.90;;;;;;5037117;28;20466;-80
2023/05/28 02:29:13;;;;;;;0.50;0.40;;;11.40;99.90;;;;;;5035915;28;20306;-79
2023/05/28 02:31:40;;;;;;;0.50;0.40;;;11.30;99.90;;;;;;5036083;28;20477;-81
2023/05/28 02:34:08;;;;;;;0.88;0.75;;;11.40;99.90;;;;;;5036472;28;20219;-82
2023/05/28 02:36:35;;;;;;;0.50;0.40;;;11.50;99.90;;;;;;5036839;28;20287;-81
2023/05/28 02:39:03;;;;;;;0.50;0.40;;;11.50;99.90;;;;;;5036691;28;20442;-81
2023/05/28 02:41:29;;;;;;;0.50;0.50;;;11.50;99.90;;;;;;5036727;28;20195;-81
2023/05/28 02:43:56;;;;;;;0.50;0.40;;;11.50;99.90;;;;;;5036191;28;20215;-81
2023/05/28 02:46:23;;;;;;;0.50;0.40;;;11.60;99.90;;;;;;5036317;28;20817;-81
2023/05/28 02:48:50;;;;;;;0.50;0.40;;;11.50;99.90;;;;;;5036627;28;20292;-81
2023/05/28 02:51:18;;;;;;;0.60;0.57;;;11.50;99.90;;;;;;5036176;28;20216;-82
2023/05/28 02:53:45;;;;;;;0.50;0.40;;;11.40;99.90;;;;;;5036791;28;20470;-82
2023/05/28 02:56:12;;;;;;;34.15;31.88;;;11.40;99.90;;;;;;5036597;28;20259;-82
2023/05/28 02:58:39;;;;;;;0.50;0.40;;;11.30;99.90;;;;;;5036791;28;20199;-82
2023/05/28 03:01:06;;;;;;;0.73;0.73;;;11.20;99.90;;;;;;5035877;28;20198;-79
2023/05/28 03:03:33;;;;;;;0.50;0.40;;;11.20;99.90;;;;;;5036498;28;20470;-82
2023/05/28 03:06:00;;;;;;;0.50;0.40;;;11.10;99.90;;;;;;5035899;28;20195;-82
2023/05/28 03:08:28;;;;;;;0.50;0.40;;;11.10;99.90;;;;;;5035663;28;20199;-82
2023/05/28 03:10:55;;;;;;;0.50;0.40;;;11.00;99.90;;;;;;5035820;28;20302;-81
2023/05/28 03:13:22;;;;;;;0.50;0.40;;;11.00;99.90;;;;;;5035751;28;20220;-78
2023/05/28 03:15:49;;;;;;;0.50;0.40;;;10.90;99.90;;;;;;5036505;28;20227;-81
2023/05/28 03:18:16;;;;;;;0.50;0.40;;;10.90;99.90;;;;;;5038654;28;20206;-79
2023/05/28 03:20:43;;;;;;;0.50;0.40;;;10.80;99.90;;;;;;5041422;28;20262;-80
2023/05/28 03:23:09;;;;;;;0.50;0.50;;;10.80;99.90;;;;;;5041200;28;20239;-80
2023/05/28 03:25:37;;;;;;;0.50;0.40;;;10.80;99.90;;;;;;5042701;28;20282;-80
2023/05/28 03:28:04;;;;;;;0.50;0.40;;;10.70;99.90;;;;;;5041932;28;20195;-80
2023/05/28 03:30:31;;;;;;;0.50;0.40;;;10.70;99.90;;;;;;5040596;28;20294;-79
2023/05/28 03:32:58;;;;;;;0.50;0.40;;;10.70;99.90;;;;;;5041267;28;20218;-80
2023/05/28 03:35:25;;;;;;;0.55;0.40;;;10.60;99.90;;;;;;5037460;28;20195;-82
2023/05/28 03:37:52;;;;;;;0.50;0.40;;;10.60;99.90;;;;;;5035285;28;20640;-82
2023/05/28 03:40:18;;;;;;;0.50;0.40;;;10.60;99.90;;;;;;5034431;28;20191;-83
2023/05/28 03:42:48;;;;;;;0.50;0.40;;;10.60;99.90;;;;;;5034992;28;20219;-82
2023/05/28 03:45:15;;;;;;;0.50;0.40;;;10.60;99.90;;;;;;5034391;28;20211;-82
2023/05/28 03:47:41;;;;;;;0.50;0.40;;;10.60;99.90;;;;;;5038201;28;20282;-79
2023/05/28 03:50:09;;;;;;;0.50;0.40;;;10.70;99.90;;;;;;5041220;28;20699;-80
2023/05/28 03:52:36;;;;;;;0.50;0.40;;;10.70;99.90;;;;;;5042101;28;20720;-79
2023/05/28 03:55:04;;;;;;;0.50;0.40;;;10.60;99.90;;;;;;5041676;28;20195;-80
2023/05/28 03:57:30;;;;;;;0.50;0.40;;;10.70;99.90;;;;;;5042076;28;20214;-79
2023/05/28 03:59:59;;;;;;;0.50;0.40;;;10.70;99.90;;;;;;5039618;28;20255;-80
2023/05/28 04:02:26;;;;;;;0.50;0.40;;;10.70;99.90;;;;;;5039306;28;20200;-79
2023/05/28 04:04:52;;;;;;;0.50;0.40;;;10.70;99.90;;;;;;5041238;28;20196;-79
2023/05/28 04:07:20;;;;;;;1.05;1.05;;;10.70;99.90;;;;;;5039838;28;20223;-82
2023/05/28 04:09:46;;;;;;;0.50;0.40;;;10.90;99.90;;;;;;5034043;28;20211;-81
2023/05/28 04:12:13;;;;;;;0.50;0.40;;;10.90;99.90;;;;;;5033922;28;20199;-82
2023/05/28 04:14:41;;;;;;;0.50;0.40;;;10.90;99.90;;;;;;5034447;28;20191;-83
2023/05/28 04:17:11;;;;;;;0.50;0.40;;;10.90;99.90;;;;;;5034306;28;20203;-82
2023/05/28 04:19:38;;;;;;;0.50;0.40;;;10.90;99.90;;;;;;5026399;28;20647;-81
2023/05/28 04:22:05;;;;;;;0.50;0.40;;;11.00;99.90;;;;;;5033545;28;20195;-81
2023/05/28 04:24:32;;;;;;;0.50;0.40;;;11.00;99.90;;;;;;5033910;28;20219;-83
2023/05/28 04:27:00;;;;;;;0.50;0.40;;;11.10;99.90;;;;;;5034285;28;20290;-81
2023/05/28 04:29:28;;;;;;;0.50;0.40;;;11.20;99.90;;;;;;5033425;28;20203;-81
2023/05/28 04:31:55;;;;;;;0.50;0.40;;;11.30;99.90;;;;;;5033947;28;20201;-82
2023/05/28 04:34:24;;;;;;;0.50;0.40;;;11.40;99.90;;;;;;5033200;28;20230;-81
2023/05/28 04:36:51;;;;;;;0.50;0.40;;;11.50;99.90;;;;;;5033506;28;20230;-81
2023/05/28 04:39:18;;;;;;;0.50;0.40;;;11.50;99.90;;;;;;5033202;28;20215;-81
2023/05/28 04:41:45;;;;;;;0.50;0.40;;;11.60;99.90;;;;;;5034072;28;20195;-82
2023/05/28 04:44:15;;;;;;;0.50;0.40;;;11.70;99.90;;;;;;5033522;28;20253;-79
2023/05/28 04:46:43;;;;;;;0.50;0.40;;;11.80;99.90;;;;;;5034084;28;20266;-81
2023/05/28 04:49:10;;;;;;;0.50;0.40;;;11.80;99.90;;;;;;5033490;28;20223;-82
2023/05/28 04:51:39;;;;;;;0.50;0.40;;;11.90;99.90;;;;;;5025995;28;20218;-81
2023/05/28 04:54:06;;;;;;;0.50;0.40;;;12.00;99.90;;;;;;5033930;28;20216;-83
2023/05/28 04:56:32;;;;;;;0.65;0.65;;;12.00;99.90;;;;;;5032988;28;20195;-81
2023/05/28 04:59:00;;;;;;;1.15;1.08;;;12.10;99.90;;;;;;5033592;28;20195;-81
2023/05/28 05:01:27;;;;;;;0.50;0.40;;;12.30;99.90;;;;;;5033415;28;20201;-81
2023/05/28 05:03:54;;;;;;;4.75;0.82;;;12.30;99.90;;;;;;5033614;28;20595;-83
2023/05/28 05:06:21;;;;;;;0.50;0.50;;;12.40;99.90;;;;;;5033598;28;20211;-83
2023/05/28 05:08:49;;;;;;;8.98;2.28;;;12.50;99.90;;;;;;5033535;28;20287;-82
2023/05/28 05:11:16;;;;;;;0.50;0.40;;;12.50;99.90;;;;;;5033563;28;20225;-80
2023/05/28 05:13:43;;;;;;;0.50;0.40;;;12.50;99.90;;;;;;5033004;28;20763;-82
2023/05/28 05:16:10;;;;;;;0.50;0.50;;;12.60;99.90;;;;;;5033285;28;20206;-81
2023/05/28 05:18:37;;;;;;;0.50;0.40;;;12.70;99.90;;;;;;5033312;28;20207;-81
2023/05/28 05:21:04;;;;;;;0.50;0.40;;;12.70;99.90;;;;;;5034240;28;20659;-80
2023/05/28 05:23:31;;;;;;;0.50;0.40;;;12.80;99.90;;;;;;5033137;28;20469;-81
2023/05/28 05:25:59;;;;;;;0.50;0.40;;;12.90;99.90;;;;;;5033529;28;20287;-82
2023/05/28 05:28:26;;;;;;;1.20;1.10;;;13.00;99.90;;;;;;5033557;28;20245;-82
2023/05/28 05:30:52;;;;;;;0.50;0.40;;;13.10;99.90;;;;;;5033361;28;20477;-82
2023/05/28 05:33:19;;;;;;;0.60;0.40;;;13.20;99.90;;;;;;5033769;28;20215;-82
2023/05/28 05:35:46;;;;;;;0.50;0.40;;;13.30;99.90;;;;;;5033654;28;20450;-81
2023/05/28 05:38:13;;;;;;;0.50;0.40;;;13.40;99.90;;;;;;5033462;28;20474;-82
2023/05/28 05:40:40;;;;;;;0.50;0.40;;;13.50;99.90;;;;;;5033275;28;20498;-83
2023/05/28 05:43:08;;;;;;;0.50;0.40;;;13.60;99.90;;;;;;5033240;28;20472;-82
2023/05/28 05:45:35;;;;;;;0.50;0.40;;;13.70;99.90;;;;;;5033002;28;20474;-81
2023/05/28 05:48:02;;;;;;;0.50;0.40;;;13.90;99.90;;;;;;5033179;28;20473;-81
2023/05/28 05:50:28;;;;;;;0.50;0.40;;;14.00;99.90;;;;;;5033181;28;21023;-83
2023/05/28 05:52:56;;;;;;;1.10;0.93;;;14.10;99.90;;;;;;5033716;28;20545;-83
2023/05/28 05:55:22;;;;;;;0.50;0.40;;;14.20;99.90;;;;;;5033265;28;20472;-83
2023/05/28 05:57:49;;;;;;;0.50;0.40;;;14.30;99.90;;;;;;5032812;28;20521;-82
2023/05/28 06:00:18;;;;;;;0.50;0.40;;;14.30;99.90;;;;;;5032447;28;20433;-80
2023/05/28 06:02:45;;;;;;;0.50;0.50;;;14.40;99.90;;;;;;5032524;28;20468;-80
2023/05/28 06:05:12;;;;;;;0.60;0.60;;;14.50;99.90;;;;;;5033522;28;20450;-81
2023/05/28 06:07:39;;;;;;;0.50;0.40;;;14.70;99.90;;;;;;5033782;28;20945;-80
2023/05/28 06:10:07;;;;;;;0.50;0.40;;;14.80;99.90;;;;;;5036541;28;20915;-81
2023/05/28 06:12:34;;;;;;;0.50;0.40;;;15.10;99.90;;;;;;5036033;28;20461;-83
2023/05/28 06:15:02;;;;;;;0.50;0.40;;;16.00;99.90;;;;;;5036986;28;20528;-82
2023/05/28 06:17:30;;;;;;;1.63;1.53;;;17.00;99.90;;;;;;5036900;28;20454;-83
2023/05/28 06:19:57;;;;;;;0.50;0.40;;;18.40;99.90;;;;;;5036583;28;20502;-80
2023/05/28 06:22:23;;;;;;;0.50;0.37;;;19.80;99.90;;;;;;5036070;28;20473;-82
2023/05/28 06:24:52;;;;;;;0.50;0.40;;;21.00;99.90;;;;;;5036429;28;20545;-82
2023/05/28 06:27:19;;;;;;;0.50;0.30;;;21.60;99.90;;;;;;5035884;28;20916;-81
2023/05/28 06:29:46;;;;;;;4.20;3.50;;;21.90;99.90;;;;;;5036457;28;20810;-82
2023/05/28 06:32:13;;;;;;;0.50;0.30;;;22.10;97.20;;;;;;5036123;28;20483;-83
2023/05/28 06:34:41;;;;;;;0.50;0.30;;;22.90;98.40;;;;;;5036302;28;20469;-82
2023/05/28 06:37:08;;;;;;;0.50;0.30;;;23.80;96.00;;;;;;5036571;28;20560;-83
2023/05/28 06:39:36;;;;;;;2.43;2.23;;;25.00;92.60;;;;;;5036493;28;20469;-84
2023/05/28 06:42:03;;;;;;;0.50;0.30;;;25.80;86.20;;;;;;5036615;28;20678;-81
2023/05/28 06:44:30;;;;;;;0.60;0.50;;;26.10;83.00;;;;;;5036288;28;21083;-82
2023/05/28 06:46:57;;;;;;;0.50;0.40;;;26.60;74.90;;;;;;5036654;28;20446;-83
2023/05/28 06:49:23;;;;;;;0.50;0.30;;;26.90;73.70;;;;;;5036567;28;20446;-83
2023/05/28 06:51:52;;;;;;;0.50;0.40;;;27.40;72.80;;;;;;5036459;28;21072;-83
2023/05/28 06:54:18;;;;;;;0.50;0.30;;;28.30;71.00;;;;;;5035809;28;20557;-81
2023/05/28 06:56:45;;;;;;;0.50;0.30;;;29.20;68.90;;;;;;5036311;28;20442;-84
2023/05/28 06:59:12;;;;;;;0.50;0.43;;;30.20;63.10;;;;;;5035328;28;20743;-84
2023/05/28 07:01:39;;;;;;;0.50;0.40;;;30.80;61.10;;;;;;5035110;28;20449;-82
2023/05/28 07:04:06;;;;;;;0.60;0.50;;;30.70;57.60;;;;;;5034979;28;20461;-82
2023/05/28 07:06:33;;;;;;;0.50;0.30;;;30.50;56.80;;;;;;5035115;28;20461;-84
2023/05/28 07:09:02;;;;;;;0.50;0.30;;;30.40;58.50;;;;;;5035688;28;20507;-83
2023/05/28 07:11:28;;;;;;;0.50;0.40;;;30.50;56.90;;;;;;5035173;28;20562;-84
2023/05/28 07:13:55;;;;;;;0.70;0.70;;;30.50;57.00;;;;;;5034715;28;20472;-83
2023/05/28 07:16:22;;;;;;;3.10;2.30;;;30.20;56.90;;;;;;5039473;28;20482;-82
2023/05/28 07:18:49;;;;;;;0.50;0.30;;;30.40;57.00;;;;;;5034786;28;20540;-84
2023/05/28 07:21:16;;;;;;;0.60;0.50;;;30.60;56.80;;;;;;5035295;28;20446;-83
2023/05/28 07:23:43;;;;;;;0.50;0.30;;;30.40;57.60;;;;;;5035058;28;20557;-83
2023/05/28 07:26:11;;;;;;;0.50;0.30;;;30.80;58.20;;;;;;5034645;28;20532;-85
2023/05/28 07:28:38;;;;;;;0.50;0.30;;;31.70;56.40;;;;;;5034606;28;20445;-83
2023/05/28 07:31:06;;;;;;;0.50;0.30;;;31.80;56.50;;;;;;5034779;28;20527;-83
2023/05/28 07:33:32;;;;;;;0.50;0.40;;;32.80;55.60;;;;;;5034277;28;20552;-84
2023/05/28 07:36:00;;;;;;;0.50;0.30;;;33.90;52.10;;;;;;5034816;28;20442;-82
2023/05/28 07:38:26;;;;;;;0.50;0.40;;;33.80;51.00;;;;;;5034316;28;20534;-84
2023/05/28 07:40:53;;;;;;;0.50;0.30;;;32.90;51.30;;;;;;5034262;28;20922;-83
2023/05/28 07:43:21;;;;;;;0.50;0.30;;;32.10;51.50;;;;;;5034099;28;20549;-84
2023/05/28 07:45:48;;;;;;;0.50;0.30;;;31.80;53.60;;;;;;5026341;28;20464;-83
2023/05/28 07:48:15;;;;;;;0.50;0.40;;;32.20;52.20;;;;;;5034076;28;20450;-82
2023/05/28 07:50:42;;;;;;;2.37;2.20;;;32.70;51.70;;;;;;5034046;28;20477;-82
2023/05/28 07:53:08;;;;;;;0.50;0.30;;;33.20;53.70;;;;;;5034502;28;20472;-83
2023/05/28 07:55:35;;;;;;;0.60;0.60;;;33.80;51.00;;;;;;5034173;28;20476;-83
2023/05/28 07:58:02;;;;;;;0.50;0.30;;;33.70;49.20;;;;;;5034619;28;20533;-82
2023/05/28 08:00:30;;;;;;;4.30;1.80;;;34.20;50.60;;;;;;5034172;28;20442;-84
2023/05/28 08:02:57;;;;;;;0.50;0.30;;;34.10;50.80;;;;;;5034008;28;20548;-85
2023/05/28 08:05:24;;;;;;;0.50;0.30;;;34.60;51.10;;;;;;5033870;28;20876;-84
2023/05/28 08:07:51;;;;;;;0.40;0.40;;;35.00;48.50;;;;;;5034215;28;20529;-84
2023/05/28 08:10:18;;;;;;;0.40;0.30;;;35.30;47.00;;;;;;5034393;28;20477;-86
2023/05/28 08:12:45;;;;;;;0.50;0.30;;;34.80;46.60;;;;;;5033370;28;21042;-84
2023/05/28 08:15:12;;;;;;;0.50;0.40;;;34.40;47.60;;;;;;5033829;28;20453;-83
2023/05/28 08:17:40;;;;;;;0.63;0.50;;;34.60;48.20;;;;;;5033903;28;20529;-84
2023/05/28 08:20:08;;;;;;;0.40;0.30;;;33.60;47.90;;;;;;5034823;28;20448;-85
2023/05/28 08:22:34;;;;;;;0.50;0.30;;;34.00;49.50;;;;;;5034485;28;20467;-84
2023/05/28 08:25:01;;;;;;;0.50;0.50;;;35.00;48.90;;;;;;5034734;28;20533;-83
2023/05/28 08:27:28;;;;;;;0.40;0.30;;;35.90;47.20;;;;;;5035212;28;20532;-85
2023/05/28 08:29:55;;;;;;;0.40;0.30;;;36.70;46.10;;;;;;5034489;28;20442;-85
2023/05/28 08:32:22;;;;;;;0.50;0.40;;;36.60;45.40;;;;;;5034245;28;20565;-85
2023/05/28 08:34:50;;;;;;;0.40;0.30;;;36.10;46.30;;;;;;5033680;28;20906;-85
2023/05/28 08:37:17;;;;;;;0.50;0.40;;;35.90;45.90;;;;;;5034128;28;20514;-83
2023/05/28 08:39:44;;;;;;;0.70;0.53;;;36.20;46.80;;;;;;5033457;28;20449;-84
2023/05/28 08:42:11;;;;;;;0.40;0.30;;;36.50;45.50;;;;;;5033501;28;20472;-83
2023/05/28 08:44:38;;;;;;;0.40;0.40;;;37.00;46.70;;;;;;5033724;28;20470;-82
2023/05/28 08:47:06;;;;;;;0.40;0.30;;;37.40;44.50;;;;;;5033570;28;20855;-84
2023/05/28 08:49:38;;;;;;;0.40;0.30;;;37.60;44.90;;;;;;5033395;28;20454;-85
2023/05/28 08:52:09;;;;;;;0.70;0.60;;;38.00;44.40;;;;;;5033486;28;20480;-83
2023/05/28 08:54:38;;;;;;;0.40;0.30;;;38.50;42.40;;;;;;5032793;28;20456;-84
2023/05/28 08:57:05;;;;;;;0.50;0.40;;;38.40;44.50;;;;;;5033282;28;20448;-83
2023/05/28 08:59:32;;;;;;;0.40;0.30;;;38.50;43.90;;;;;;5033229;28;20961;-83
2023/05/28 09:02:00;;;;;;;1.37;0.60;;;39.00;43.30;;;;;;5033107;28;20434;-84
2023/05/28 09:04:26;;;;;;;0.70;0.43;;;39.20;41.90;;;;;;5032530;28;20464;-82
2023/05/28 09:06:53;;;;;;;0.40;0.30;;;39.40;42.10;;;;;;5033610;28;20470;-84
2023/05/28 09:09:22;;;;;;;0.40;0.30;;;39.30;43.40;;;;;;5033480;28;20806;-82
2023/05/28 09:11:49;;;;;;;0.40;0.30;;;39.60;41.70;;;;;;5032484;28;20565;-85
2023/05/28 09:14:19;;;;;;;0.40;0.30;;;39.70;41.30;;;;;;5032569;28;20495;-83
2023/05/28 09:16:46;;;;;;;1.23;0.57;;;39.50;41.60;;;;;;5033002;28;20444;-83
2023/05/28 09:19:16;;;;;;;0.40;0.30;;;39.20;40.20;;;;;;5033117;28;20446;-85
2023/05/28 09:21:53;;;;;;;1.13;1.13;;;39.20;41.60;;;;;;5032992;28;20438;-82
2023/05/28 09:24:20;;;;;;;0.40;0.30;;;38.90;42.50;;;;;;5032653;28;20489;-85
2023/05/28 09:26:50;;;;;;;0.40;0.30;;;39.40;42.50;;;;;;5033932;28;20438;-85
2023/05/28 09:29:17;;;;;;;0.60;0.60;;;39.40;42.00;;;;;;5033825;28;20446;-83
2023/05/28 09:31:44;;;;;;;0.40;0.30;;;39.70;42.80;;;;;;5033838;28;20486;-85
2023/05/28 09:34:11;;;;;;;0.50;0.50;;;39.70;41.70;;;;;;5033087;28;20470;-83
2023/05/28 09:36:38;;;;;;;0.40;0.30;;;38.80;40.00;;;;;;5032912;28;20446;-84
2023/05/28 09:39:08;;;;;;;0.40;0.30;;;38.00;42.20;;;;;;5032724;28;20438;-83
2023/05/28 09:41:36;;;;;;;0.50;0.50;;;38.00;42.20;;;;;;5033919;28;20446;-85
2023/05/28 09:44:05;;;;;;;0.40;0.30;;;38.30;42.40;;;;;;5036576;28;20497;-84
2023/05/28 09:46:33;;;;;;;0.50;0.47;;;38.60;43.10;;;;;;5036609;28;20861;-83
2023/05/28 09:49:01;;;;;;;0.40;0.30;;;37.40;42.40;;;;;;5036596;28;20444;-84
2023/05/28 09:51:29;;;;;;;0.40;0.30;;;37.40;43.50;;;;;;5036948;28;20484;-82
2023/05/28 09:53:58;;;;;;;1.07;0.40;;;37.80;42.20;;;;;;5028681;28;20458;-84
2023/05/28 09:56:29;;;;;;;0.43;0.37;;;37.60;41.50;;;;;;5036717;28;20537;-82
2023/05/28 09:58:58;;;;;;;0.40;0.30;;;37.40;42.90;;;;;;5028499;28;20438;-84
2023/05/28 10:01:31;;;;;;;0.40;0.30;;;37.40;42.50;;;;;;5036259;28;20957;-79
2023/05/28 10:04:03;;;;;;;0.40;0.30;;;37.50;41.80;;;;;;5028750;28;20809;-83
2023/05/28 10:06:31;;;;;;;2.87;2.13;;;37.90;42.90;;;;;;5035893;28;20449;-83
2023/05/28 10:09:00;;;;;;;0.40;0.30;;;37.70;41.90;;;;;;5036434;28;20443;-84
2023/05/28 10:11:31;;;;;;;0.83;0.83;;;37.70;41.10;;;;;;5036515;28;20820;-83
2023/05/28 10:13:58;;;;;;;0.83;0.83;;;37.60;42.10;;;;;;5027988;28;20462;-84
2023/05/28 10:16:26;;;;;;;0.40;0.30;;;37.60;40.20;;;;;;5036529;28;20441;-84
2023/05/28 10:18:55;;;;;;;0.40;0.30;;;37.60;42.00;;;;;;5036010;28;20896;-84
2023/05/28 10:21:22;;;;;;;0.40;0.30;;;37.50;41.00;;;;;;5036430;28;20453;-85
2023/05/28 10:23:49;;;;;;;0.40;0.30;;;37.60;42.20;;;;;;5035291;28;20472;-82
2023/05/28 10:26:18;;;;;;;2.30;2.20;;;37.40;40.20;;;;;;5035885;28;20465;-82
2023/05/28 10:28:45;;;;;;;0.40;0.30;;;37.50;41.80;;;;;;5035516;28;20446;-85
2023/05/28 10:31:11;;;;;;;0.40;0.30;;;37.50;40.80;;;;;;5035896;28;20449;-85
2023/05/28 10:33:41;;;;;;;0.40;0.30;;;37.70;42.70;;;;;;5034932;28;20492;-83
2023/05/28 10:36:12;;;;;;;0.40;0.30;;;38.10;40.10;;;;;;5036055;28;20500;-85
2023/05/28 10:38:59;;;;;;;0.40;0.30;;;38.30;40.30;;;;;;5035013;28;20861;-83
2023/05/28 10:41:26;;;;;;;0.50;0.50;;;38.20;39.60;;;;;;5035950;28;20939;-81
2023/05/28 10:43:53;;;;;;;1.10;0.60;;;37.70;39.40;;;;;;5035346;28;20474;-83
2023/05/28 10:46:26;;;;;;;0.53;0.53;;;37.30;40.20;;;;;;5035893;28;20449;-83
2023/05/28 10:49:13;;;;;;;0.40;0.40;;;37.30;42.20;;;;;;5035328;28;20446;-84
2023/05/28 10:52:01;;;;;;;0.40;0.30;;;37.40;41.10;;;;;;5035074;28;20449;-85
2023/05/28 10:54:45;;;;;;;0.40;0.30;;;37.20;39.90;;;;;;5028401;28;20470;-83
2023/05/28 10:57:13;;;;;;;0.40;0.30;;;36.80;39.70;;;;;;5028824;28;20542;-84
2023/05/28 10:59:44;;;;;;;0.40;0.30;;;36.20;41.80;;;;;;5034249;28;20478;-85
2023/05/28 11:02:11;;;;;;;0.40;0.30;;;36.40;41.20;;;;;;5035321;28;20918;-85
2023/05/28 11:04:40;;;;;;;0.50;0.47;;;36.60;40.20;;;;;;5034911;28;20446;-84
2023/05/28 11:07:07;;;;;;;0.50;0.50;;;36.20;39.90;;;;;;5035313;28;20449;-84
2023/05/28 11:09:35;;;;;;;0.40;0.30;;;36.30;41.10;;;;;;5035214;28;20438;-81
2023/05/28 11:12:03;;;;;;;0.40;0.30;;;36.40;42.30;;;;;;5035042;28;20474;-84
2023/05/28 11:14:34;;;;;;;0.50;0.40;;;37.10;41.60;;;;;;5034857;28;20469;-85
2023/05/28 11:17:00;;;;;;;0.40;0.30;;;37.70;41.90;;;;;;5027184;28;20437;-84
2023/05/28 11:19:27;;;;;;;0.40;0.30;;;38.10;40.50;;;;;;5034593;28;20538;-85
2023/05/28 11:21:56;;;;;;;0.40;0.30;;;37.80;39.90;;;;;;5034514;28;20431;-82
2023/05/28 11:24:23;;;;;;;0.50;0.40;;;37.80;39.50;;;;;;5034256;28;20458;-84
2023/05/28 11:26:53;;;;;;;0.57;0.40;;;38.50;41.10;;;;;;5034435;28;20866;-85
2023/05/28 11:29:20;;;;;;;0.40;0.30;;;38.40;38.50;;;;;;5034831;28;20445;-84
2023/05/28 11:31:47;;;;;;;0.40;0.40;;;38.40;38.90;;;;;;5034405;28;20447;-83
2023/05/28 11:34:14;;;;;;;0.40;0.30;;;38.10;39.20;;;;;;5034464;28;20877;-83
2023/05/28 11:36:42;;;;;;;0.60;0.50;;;37.90;41.30;;;;;;5034127;28;20925;-84
2023/05/28 11:39:10;;;;;;;0.50;0.50;;;37.70;39.60;;;;;;5034280;28;20951;-83
2023/05/28 11:41:38;;;;;;;0.40;0.30;;;38.10;41.20;;;;;;5034849;28;20472;-84
2023/05/28 11:44:19;;;;;;;0.40;0.40;;;38.10;39.70;;;;;;5034288;28;20632;-85
2023/05/28 11:46:46;;;;;;;2.30;0.70;;;38.00;40.60;;;;;;5034119;28;20446;-82
2023/05/28 11:49:13;;;;;;;0.97;0.97;;;38.30;40.50;;;;;;5034101;28;20533;-84
2023/05/28 11:51:40;;;;;;;0.40;0.30;;;38.10;40.00;;;;;;5034218;28;20529;-85
2023/05/28 11:54:07;;;;;;;0.40;0.30;;;38.00;39.60;;;;;;5033969;28;20482;-86
2023/05/28 11:56:36;;;;;;;0.50;0.47;;;37.40;38.00;;;;;;5034551;28;20453;-84
2023/05/28 11:59:03;;;;;;;0.40;0.30;;;37.00;38.70;;;;;;5034421;28;20945;-84
2023/05/28 12:01:34;;;;;;;0.50;0.50;;;36.70;40.70;;;;;;5034365;28;20937;-84
2023/05/28 12:04:06;;;;;;;0.40;0.30;;;36.40;40.50;;;;;;5033320;28;20450;-83
2023/05/28 12:06:33;;;;;;;0.40;0.30;;;36.50;40.10;;;;;;5034322;28;20442;-84
2023/05/28 12:09:04;;;;;;;0.40;0.30;;;36.70;41.40;;;;;;5033706;28;20442;-85
2023/05/28 12:11:31;;;;;;;0.50;0.40;;;36.90;41.40;;;;;;5034414;28;20818;-85
2023/05/28 12:14:10;;;;;;;0.40;0.30;;;37.40;42.10;;;;;;5033537;28;20581;-85
2023/05/28 12:16:46;;;;;;;0.40;0.30;;;37.30;40.40;;;;;;5034237;28;20536;-85
2023/05/28 12:19:14;;;;;;;0.40;0.30;;;37.60;41.60;;;;;;5027062;28;20479;-84
2023/05/28 12:21:41;;;;;;;0.40;0.30;;;37.30;40.00;;;;;;5033582;28;20449;-85
2023/05/28 12:24:14;;;;;;;0.40;0.30;;;36.40;41.30;;;;;;5033834;28;20542;-83
2023/05/28 12:26:41;;;;;;;0.40;0.30;;;36.10;40.60;;;;;;5033537;28;20442;-83
2023/05/28 12:29:10;;;;;;;0.40;0.30;;;35.60;42.30;;;;;;5034327;28;20984;-83
2023/05/28 12:31:37;;;;;;;3.03;0.47;;;35.90;43.40;;;;;;5033531;28;20945;-84
2023/05/28 12:34:05;;;;;;;0.40;0.40;;;36.30;41.10;;;;;;5025433;28;20501;-85
2023/05/28 12:36:33;;;;;;;0.40;0.40;;;36.20;40.70;;;;;;5033484;28;20817;-82
2023/05/28 12:38:59;;;;;;;0.50;0.40;;;35.20;41.20;;;;;;5033090;28;20445;-85
2023/05/28 12:41:26;;;;;;;0.40;0.30;;;34.90;41.60;;;;;;5033780;28;20537;-80
2023/05/28 12:43:53;;;;;;;9.07;2.23;;;35.00;43.10;;;;;;5032614;28;20462;-85
2023/05/28 12:46:22;;;;;;;0.40;0.30;;;34.80;42.80;;;;;;5033492;28;20450;-83
2023/05/28 12:48:48;;;;;;;0.40;0.30;;;35.00;43.30;;;;;;5033803;28;20457;-84